sensor_id;sensor_type;location;lat;lon;timestamp;temperature;humidity
2995;DHT22;35277;49.890;8.222;2022-08-19T00:00:40;29.10;67.20
2995;DHT22;35277;49.890;8.222;2022-08-19T00:03:08;29.10;67.20
2995;DHT22;35277;49.890;8.222;2022-08-19T00:05:37;29.10;67.20
2995;DHT22;35277;49.890;8.222;2022-08-19T00:08:06;29.10;67.20
2995;DHT22;35277;49.890;8.222;2022-08-19T00:10:34;29.10;67.20
2995;DHT22;35277;49.890;8.222;2022-08-19T00:13:02;29.10;67.20
2995;DHT22;35277;49.890;8.222;2022-08-19T00:15:30;29.10;67.20
2995;DHT22;35277;49.890;8.222;2022-08-19T00:17:58;29.10;67.20
2995;DHT22;35277;49.890;8.222;2022-08-19T00:20:26;29.10;67.20
2995;DHT22;35277;49.890;8.222;2022-08-19T00:22:55;29.10;67.20
2995;DHT22;35277;49.890;8.222;2022-08-19T00:25:24;29.10;67.20
2995;DHT22;35277;49.890;8.222;2022-08-19T00:27:56;29.10;67.20
2995;DHT22;35277;49.890;8.222;2022-08-19T00:30:24;29.10;67.20
2995;DHT22;35277;49.890;8.222;2022-08-19T00:32:52;29.10;67.20
2995;DHT22;35277;49.890;8.222;2022-08-19T00:35:21;29.10;67.20
2995;DHT22;35277;49.890;8.222;2022-08-19T00:37:49;29.10;67.20
2995;DHT22;35277;49.890;8.222;2022-08-19T00:40:21;29.10;67.20
2995;DHT22;35277;49.890;8.222;2022-08-19T00:42:49;29.10;67.20
2995;DHT22;35277;49.890;8.222;2022-08-19T00:45:23;29.10;67.20
2995;DHT22;35277;49.890;8.222;2022-08-19T00:47:52;29.10;67.20
2995;DHT22;35277;49.890;8.222;2022-08-19T00:50:21;29.10;67.20
2995;DHT22;35277;49.890;8.222;2022-08-19T00:52:50;29.10;67.20
2995;DHT22;35277;49.890;8.222;2022-08-19T00:55:22;29.10;67.20
2995;DHT22;35277;49.890;8.222;2022-08-19T00:57:54;29.10;67.30
2995;DHT22;35277;49.890;8.222;2022-08-19T01:00:25;29.10;67.20
2995;DHT22;35277;49.890;8.222;2022-08-19T01:02:53;29.10;67.20
2995;DHT22;35277;49.890;8.222;2022-08-19T01:05:23;29.10;67.20
2995;DHT22;35277;49.890;8.222;2022-08-19T01:07:54;29.10;67.20
2995;DHT22;35277;49.890;8.222;2022-08-19T01:10:25;29.10;67.20
2995;DHT22;35277;49.890;8.222;2022-08-19T01:12:55;29.10;67.20
2995;DHT22;35277;49.890;8.222;2022-08-19T01:15:27;29.10;67.20
2995;DHT22;35277;49.890;8.222;2022-08-19T01:17:57;29.10;67.20
2995;DHT22;35277;49.890;8.222;2022-08-19T01:20:27;29.10;67.20
2995;DHT22;35277;49.890;8.222;2022-08-19T01:22:58;29.10;67.20
2995;DHT22;35277;49.890;8.222;2022-08-19T01:25:29;29.10;67.20
2995;DHT22;35277;49.890;8.222;2022-08-19T01:27:59;29.10;67.30
2995;DHT22;35277;49.890;8.222;2022-08-19T01:30:37;29.10;67.20
2995;DHT22;35277;49.890;8.222;2022-08-19T01:33:10;29.10;67.30
2995;DHT22;35277;49.890;8.222;2022-08-19T01:35:38;29.10;67.30
2995;DHT22;35277;49.890;8.222;2022-08-19T01:38:10;29.10;67.30
2995;DHT22;35277;49.890;8.222;2022-08-19T01:40:46;29.10;67.30
2995;DHT22;35277;49.890;8.222;2022-08-19T01:43:14;29.10;67.30
2995;DHT22;35277;49.890;8.222;2022-08-19T01:45:42;29.10;68.10
2995;DHT22;35277;49.890;8.222;2022-08-19T01:48:09;29.10;67.30
2995;DHT22;35277;49.890;8.222;2022-08-19T01:50:37;29.10;67.30
2995;DHT22;35277;49.890;8.222;2022-08-19T01:53:11;29.10;67.30
2995;DHT22;35277;49.890;8.222;2022-08-19T01:55:41;29.10;67.30
2995;DHT22;35277;49.890;8.222;2022-08-19T01:58:12;29.10;67.30
2995;DHT22;35277;49.890;8.222;2022-08-19T02:00:41;29.10;67.30
2995;DHT22;35277;49.890;8.222;2022-08-19T02:03:09;29.10;67.30
2995;DHT22;35277;49.890;8.222;2022-08-19T02:05:38;29.10;67.30
2995;DHT22;35277;49.890;8.222;2022-08-19T02:08:06;29.10;67.30
2995;DHT22;35277;49.890;8.222;2022-08-19T02:10:39;29.10;67.30
2995;DHT22;35277;49.890;8.222;2022-08-19T02:13:08;29.10;67.30
2995;DHT22;35277;49.890;8.222;2022-08-19T02:15:36;29.10;67.30
2995;DHT22;35277;49.890;8.222;2022-08-19T02:18:04;29.10;67.30
2995;DHT22;35277;49.890;8.222;2022-08-19T02:20:34;29.10;67.30
2995;DHT22;35277;49.890;8.222;2022-08-19T02:23:02;29.10;67.30
2995;DHT22;35277;49.890;8.222;2022-08-19T02:25:30;29.10;67.30
2995;DHT22;35277;49.890;8.222;2022-08-19T02:27:59;29.10;67.30
2995;DHT22;35277;49.890;8.222;2022-08-19T02:30:27;29.10;67.30
2995;DHT22;35277;49.890;8.222;2022-08-19T02:32:54;29.10;67.30
2995;DHT22;35277;49.890;8.222;2022-08-19T02:35:23;29.10;67.30
2995;DHT22;35277;49.890;8.222;2022-08-19T02:37:51;29.10;67.40
2995;DHT22;35277;49.890;8.222;2022-08-19T02:40:36;29.10;67.30
2995;DHT22;35277;49.890;8.222;2022-08-19T02:43:07;29.10;67.30
2995;DHT22;35277;49.890;8.222;2022-08-19T02:45:37;29.10;67.40
2995;DHT22;35277;49.890;8.222;2022-08-19T02:48:07;29.10;67.30
2995;DHT22;35277;49.890;8.222;2022-08-19T02:50:48;29.10;67.40
2995;DHT22;35277;49.890;8.222;2022-08-19T02:53:19;29.10;67.30
2995;DHT22;35277;49.890;8.222;2022-08-19T02:55:49;29.10;67.30
2995;DHT22;35277;49.890;8.222;2022-08-19T02:58:19;29.00;67.30
2995;DHT22;35277;49.890;8.222;2022-08-19T03:00:50;29.10;67.40
2995;DHT22;35277;49.890;8.222;2022-08-19T03:03:19;29.10;67.30
2995;DHT22;35277;49.890;8.222;2022-08-19T03:05:47;29.10;67.40
2995;DHT22;35277;49.890;8.222;2022-08-19T03:08:23;29.10;67.40
2995;DHT22;35277;49.890;8.222;2022-08-19T03:10:52;29.10;67.30
2995;DHT22;35277;49.890;8.222;2022-08-19T03:13:21;29.10;67.30
2995;DHT22;35277;49.890;8.222;2022-08-19T03:15:49;29.10;67.30
2995;DHT22;35277;49.890;8.222;2022-08-19T03:18:17;29.10;67.40
2995;DHT22;35277;49.890;8.222;2022-08-19T03:20:47;29.10;67.30
2995;DHT22;35277;49.890;8.222;2022-08-19T03:23:16;29.10;67.40
2995;DHT22;35277;49.890;8.222;2022-08-19T03:25:46;29.10;67.40
2995;DHT22;35277;49.890;8.222;2022-08-19T03:28:31;29.10;67.40
2995;DHT22;35277;49.890;8.222;2022-08-19T03:31:03;29.10;67.40
2995;DHT22;35277;49.890;8.222;2022-08-19T03:33:51;29.10;67.40
2995;DHT22;35277;49.890;8.222;2022-08-19T03:36:21;29.10;67.40
2995;DHT22;35277;49.890;8.222;2022-08-19T03:38:55;29.10;67.40
2995;DHT22;35277;49.890;8.222;2022-08-19T03:41:27;29.10;67.40
2995;DHT22;35277;49.890;8.222;2022-08-19T03:44:13;29.10;67.40
2995;DHT22;35277;49.890;8.222;2022-08-19T03:46:45;29.10;67.40
2995;DHT22;35277;49.890;8.222;2022-08-19T03:49:13;29.10;67.40
2995;DHT22;35277;49.890;8.222;2022-08-19T03:51:44;29.10;67.40
2995;DHT22;35277;49.890;8.222;2022-08-19T03:54:14;29.10;67.40
2995;DHT22;35277;49.890;8.222;2022-08-19T03:56:44;29.10;67.40
2995;DHT22;35277;49.890;8.222;2022-08-19T03:59:17;29.00;67.40
2995;DHT22;35277;49.890;8.222;2022-08-19T04:01:46;29.10;67.50
2995;DHT22;35277;49.890;8.222;2022-08-19T04:04:14;29.10;67.40
2995;DHT22;35277;49.890;8.222;2022-08-19T04:06:43;29.00;67.40
2995;DHT22;35277;49.890;8.222;2022-08-19T04:09:14;29.10;67.40
2995;DHT22;35277;49.890;8.222;2022-08-19T04:11:44;29.10;67.50
2995;DHT22;35277;49.890;8.222;2022-08-19T04:14:16;29.10;67.50
2995;DHT22;35277;49.890;8.222;2022-08-19T04:16:45;29.10;67.40
2995;DHT22;35277;49.890;8.222;2022-08-19T04:19:15;29.10;67.40
2995;DHT22;35277;49.890;8.222;2022-08-19T04:21:44;29.10;67.50
2995;DHT22;35277;49.890;8.222;2022-08-19T04:24:13;29.10;67.40
2995;DHT22;35277;49.890;8.222;2022-08-19T04:26:41;29.10;67.40
2995;DHT22;35277;49.890;8.222;2022-08-19T04:29:11;29.10;67.50
2995;DHT22;35277;49.890;8.222;2022-08-19T04:31:41;29.10;67.50
2995;DHT22;35277;49.890;8.222;2022-08-19T04:34:12;29.10;67.50
2995;DHT22;35277;49.890;8.222;2022-08-19T04:36:41;29.10;67.50
2995;DHT22;35277;49.890;8.222;2022-08-19T04:39:13;29.10;67.50
2995;DHT22;35277;49.890;8.222;2022-08-19T04:41:41;29.10;67.50
2995;DHT22;35277;49.890;8.222;2022-08-19T04:44:27;29.10;67.50
2995;DHT22;35277;49.890;8.222;2022-08-19T04:47:00;29.10;67.50
2995;DHT22;35277;49.890;8.222;2022-08-19T04:49:37;29.10;67.50
2995;DHT22;35277;49.890;8.222;2022-08-19T04:52:05;29.00;67.50
2995;DHT22;35277;49.890;8.222;2022-08-19T04:54:32;29.10;67.50
2995;DHT22;35277;49.890;8.222;2022-08-19T04:57:06;29.00;67.50
2995;DHT22;35277;49.890;8.222;2022-08-19T04:59:37;29.10;67.50
2995;DHT22;35277;49.890;8.222;2022-08-19T05:02:09;29.10;67.60
2995;DHT22;35277;49.890;8.222;2022-08-19T05:04:37;29.10;67.60
2995;DHT22;35277;49.890;8.222;2022-08-19T05:07:07;29.10;67.60
2995;DHT22;35277;49.890;8.222;2022-08-19T05:09:36;29.10;67.60
2995;DHT22;35277;49.890;8.222;2022-08-19T05:12:25;29.10;67.60
2995;DHT22;35277;49.890;8.222;2022-08-19T05:14:55;29.00;67.50
2995;DHT22;35277;49.890;8.222;2022-08-19T05:17:24;29.00;67.50
2995;DHT22;35277;49.890;8.222;2022-08-19T05:19:56;29.00;67.50
2995;DHT22;35277;49.890;8.222;2022-08-19T05:22:42;29.00;67.50
2995;DHT22;35277;49.890;8.222;2022-08-19T05:25:13;29.00;67.40
2995;DHT22;35277;49.890;8.222;2022-08-19T05:27:42;29.00;67.50
2995;DHT22;35277;49.890;8.222;2022-08-19T05:30:10;28.90;67.40
2995;DHT22;35277;49.890;8.222;2022-08-19T05:32:40;28.80;67.40
2995;DHT22;35277;49.890;8.222;2022-08-19T05:35:09;28.70;67.50
2995;DHT22;35277;49.890;8.222;2022-08-19T05:37:37;28.60;67.50
2995;DHT22;35277;49.890;8.222;2022-08-19T05:40:07;28.50;67.50
2995;DHT22;35277;49.890;8.222;2022-08-19T05:42:36;28.40;67.60
2995;DHT22;35277;49.890;8.222;2022-08-19T05:45:04;28.40;67.70
2995;DHT22;35277;49.890;8.222;2022-08-19T05:47:33;28.30;67.70
2995;DHT22;35277;49.890;8.222;2022-08-19T05:50:09;28.30;67.90
2995;DHT22;35277;49.890;8.222;2022-08-19T05:52:37;28.20;67.90
2995;DHT22;35277;49.890;8.222;2022-08-19T05:55:11;28.20;68.10
2995;DHT22;35277;49.890;8.222;2022-08-19T05:57:40;28.10;68.10
2995;DHT22;35277;49.890;8.222;2022-08-19T06:00:09;28.10;68.20
2995;DHT22;35277;49.890;8.222;2022-08-19T06:02:38;28.00;68.40
2995;DHT22;35277;49.890;8.222;2022-08-19T06:05:09;28.00;68.50
2995;DHT22;35277;49.890;8.222;2022-08-19T06:07:39;28.00;68.60
2995;DHT22;35277;49.890;8.222;2022-08-19T06:10:08;28.00;68.60
2995;DHT22;35277;49.890;8.222;2022-08-19T06:12:37;28.10;68.60
2995;DHT22;35277;49.890;8.222;2022-08-19T06:15:07;28.10;68.60
2995;DHT22;35277;49.890;8.222;2022-08-19T06:17:36;28.20;68.60
2995;DHT22;35277;49.890;8.222;2022-08-19T06:20:05;28.20;68.60
2995;DHT22;35277;49.890;8.222;2022-08-19T06:22:39;28.30;68.60
2995;DHT22;35277;49.890;8.222;2022-08-19T06:25:08;28.30;68.60
2995;DHT22;35277;49.890;8.222;2022-08-19T06:27:36;28.30;68.60
2995;DHT22;35277;49.890;8.222;2022-08-19T06:30:24;28.40;68.60
2995;DHT22;35277;49.890;8.222;2022-08-19T06:32:52;28.40;68.60
2995;DHT22;35277;49.890;8.222;2022-08-19T06:35:20;28.40;68.60
2995;DHT22;35277;49.890;8.222;2022-08-19T06:37:49;28.40;68.60
2995;DHT22;35277;49.890;8.222;2022-08-19T06:40:17;28.50;68.70
2995;DHT22;35277;49.890;8.222;2022-08-19T06:42:45;28.50;68.70
2995;DHT22;35277;49.890;8.222;2022-08-19T06:45:20;28.50;68.60
2995;DHT22;35277;49.890;8.222;2022-08-19T06:48:00;28.50;68.60
2995;DHT22;35277;49.890;8.222;2022-08-19T06:50:28;28.60;68.70
2995;DHT22;35277;49.890;8.222;2022-08-19T06:52:57;28.60;68.70
2995;DHT22;35277;49.890;8.222;2022-08-19T06:55:30;28.60;68.70
2995;DHT22;35277;49.890;8.222;2022-08-19T06:58:01;28.60;68.60
2995;DHT22;35277;49.890;8.222;2022-08-19T07:00:29;28.60;68.70
2995;DHT22;35277;49.890;8.222;2022-08-19T07:03:03;28.60;68.70
2995;DHT22;35277;49.890;8.222;2022-08-19T07:05:39;28.60;68.70
2995;DHT22;35277;49.890;8.222;2022-08-19T07:08:12;28.70;68.80
2995;DHT22;35277;49.890;8.222;2022-08-19T07:10:43;28.70;68.80
2995;DHT22;35277;49.890;8.222;2022-08-19T07:13:11;28.70;68.80
2995;DHT22;35277;49.890;8.222;2022-08-19T07:15:38;28.70;68.80
2995;DHT22;35277;49.890;8.222;2022-08-19T07:18:06;28.80;68.90
2995;DHT22;35277;49.890;8.222;2022-08-19T07:20:37;28.80;68.90
2995;DHT22;35277;49.890;8.222;2022-08-19T07:23:07;28.80;68.90
2995;DHT22;35277;49.890;8.222;2022-08-19T07:25:42;28.80;68.90
2995;DHT22;35277;49.890;8.222;2022-08-19T07:28:18;28.80;68.90
2995;DHT22;35277;49.890;8.222;2022-08-19T07:30:50;28.80;68.80
2995;DHT22;35277;49.890;8.222;2022-08-19T07:33:18;28.80;68.80
2995;DHT22;35277;49.890;8.222;2022-08-19T07:35:46;28.80;68.80
2995;DHT22;35277;49.890;8.222;2022-08-19T07:38:16;28.90;68.90
2995;DHT22;35277;49.890;8.222;2022-08-19T07:40:45;28.90;68.90
2995;DHT22;35277;49.890;8.222;2022-08-19T07:43:14;28.90;68.90
2995;DHT22;35277;49.890;8.222;2022-08-19T07:45:43;28.90;68.90
2995;DHT22;35277;49.890;8.222;2022-08-19T07:48:11;28.90;68.90
2995;DHT22;35277;49.890;8.222;2022-08-19T07:50:39;28.90;68.90
2995;DHT22;35277;49.890;8.222;2022-08-19T07:53:07;28.90;68.80
2995;DHT22;35277;49.890;8.222;2022-08-19T07:55:34;28.90;68.80
2995;DHT22;35277;49.890;8.222;2022-08-19T07:58:11;28.90;68.80
2995;DHT22;35277;49.890;8.222;2022-08-19T08:00:40;28.90;68.80
2995;DHT22;35277;49.890;8.222;2022-08-19T08:03:09;28.90;68.80
2995;DHT22;35277;49.890;8.222;2022-08-19T08:05:37;28.90;68.80
2995;DHT22;35277;49.890;8.222;2022-08-19T08:08:22;29.00;69.00
2995;DHT22;35277;49.890;8.222;2022-08-19T08:11:15;29.00;68.90
2995;DHT22;35277;49.890;8.222;2022-08-19T08:13:47;28.90;68.80
2995;DHT22;35277;49.890;8.222;2022-08-19T08:16:33;28.90;68.70
2995;DHT22;35277;49.890;8.222;2022-08-19T08:19:05;28.90;69.60
2995;DHT22;35277;49.890;8.222;2022-08-19T08:21:52;28.90;68.70
2995;DHT22;35277;49.890;8.222;2022-08-19T08:24:20;28.90;68.70
2995;DHT22;35277;49.890;8.222;2022-08-19T08:26:54;28.90;68.70
2995;DHT22;35277;49.890;8.222;2022-08-19T08:29:25;28.90;68.80
2995;DHT22;35277;49.890;8.222;2022-08-19T08:32:01;28.90;68.80
2995;DHT22;35277;49.890;8.222;2022-08-19T08:34:29;28.90;68.70
2995;DHT22;35277;49.890;8.222;2022-08-19T08:36:56;28.90;68.70
2995;DHT22;35277;49.890;8.222;2022-08-19T08:39:24;28.90;68.70
2995;DHT22;35277;49.890;8.222;2022-08-19T08:41:56;28.90;68.70
2995;DHT22;35277;49.890;8.222;2022-08-19T08:44:46;28.90;68.80
2995;DHT22;35277;49.890;8.222;2022-08-19T08:47:18;28.90;68.90
2995;DHT22;35277;49.890;8.222;2022-08-19T08:49:51;28.90;68.90
2995;DHT22;35277;49.890;8.222;2022-08-19T08:52:22;28.90;69.00
2995;DHT22;35277;49.890;8.222;2022-08-19T08:55:00;28.90;69.00
2995;DHT22;35277;49.890;8.222;2022-08-19T08:57:39;28.90;69.00
2995;DHT22;35277;49.890;8.222;2022-08-19T09:00:17;28.90;69.10
2995;DHT22;35277;49.890;8.222;2022-08-19T09:02:47;29.00;69.20
2995;DHT22;35277;49.890;8.222;2022-08-19T09:05:17;29.00;69.20
2995;DHT22;35277;49.890;8.222;2022-08-19T09:07:56;29.00;69.20
2995;DHT22;35277;49.890;8.222;2022-08-19T09:10:29;29.00;69.20
2995;DHT22;35277;49.890;8.222;2022-08-19T09:13:05;29.00;69.20
2995;DHT22;35277;49.890;8.222;2022-08-19T09:15:42;29.00;69.30
2995;DHT22;35277;49.890;8.222;2022-08-19T09:18:12;29.10;69.30
2995;DHT22;35277;49.890;8.222;2022-08-19T09:20:45;29.10;69.30
2995;DHT22;35277;49.890;8.222;2022-08-19T09:23:15;29.10;69.30
2995;DHT22;35277;49.890;8.222;2022-08-19T09:25:42;29.10;69.30
2995;DHT22;35277;49.890;8.222;2022-08-19T09:28:10;29.10;69.30
2995;DHT22;35277;49.890;8.222;2022-08-19T09:30:54;29.10;69.30
2995;DHT22;35277;49.890;8.222;2022-08-19T09:33:21;29.10;69.20
2995;DHT22;35277;49.890;8.222;2022-08-19T09:35:49;29.10;69.00
2995;DHT22;35277;49.890;8.222;2022-08-19T09:38:19;29.10;69.00
2995;DHT22;35277;49.890;8.222;2022-08-19T09:40:47;29.10;69.00
2995;DHT22;35277;49.890;8.222;2022-08-19T09:43:15;29.10;69.00
2995;DHT22;35277;49.890;8.222;2022-08-19T09:46:01;29.10;69.10
2995;DHT22;35277;49.890;8.222;2022-08-19T09:48:29;29.10;69.40
2995;DHT22;35277;49.890;8.222;2022-08-19T09:51:03;29.10;69.50
2995;DHT22;35277;49.890;8.222;2022-08-19T09:53:31;29.10;69.50
2995;DHT22;35277;49.890;8.222;2022-08-19T09:55:59;29.10;69.30
2995;DHT22;35277;49.890;8.222;2022-08-19T09:58:30;29.00;69.10
2995;DHT22;35277;49.890;8.222;2022-08-19T10:00:59;29.00;68.90
2995;DHT22;35277;49.890;8.222;2022-08-19T10:03:29;29.00;68.80
2995;DHT22;35277;49.890;8.222;2022-08-19T10:05:59;29.00;68.80
2995;DHT22;35277;49.890;8.222;2022-08-19T10:08:29;29.00;68.70
2995;DHT22;35277;49.890;8.222;2022-08-19T10:10:57;28.90;68.60
2995;DHT22;35277;49.890;8.222;2022-08-19T10:13:46;28.90;68.60
2995;DHT22;35277;49.890;8.222;2022-08-19T10:16:15;28.90;68.40
2995;DHT22;35277;49.890;8.222;2022-08-19T10:18:45;28.90;68.40
2995;DHT22;35277;49.890;8.222;2022-08-19T10:21:17;28.90;68.20
2995;DHT22;35277;49.890;8.222;2022-08-19T10:23:48;28.80;68.10
2995;DHT22;35277;49.890;8.222;2022-08-19T10:26:20;28.80;67.60
2995;DHT22;35277;49.890;8.222;2022-08-19T10:28:52;28.70;65.80
2995;DHT22;35277;49.890;8.222;2022-08-19T10:31:25;28.40;65.60
2995;DHT22;35277;49.890;8.222;2022-08-19T10:34:15;28.30;65.90
2995;DHT22;35277;49.890;8.222;2022-08-19T10:36:53;28.10;66.10
2995;DHT22;35277;49.890;8.222;2022-08-19T10:39:28;28.00;66.40
2995;DHT22;35277;49.890;8.222;2022-08-19T10:41:56;28.00;66.30
2995;DHT22;35277;49.890;8.222;2022-08-19T10:44:25;28.00;66.30
2995;DHT22;35277;49.890;8.222;2022-08-19T10:46:58;27.90;66.20
2995;DHT22;35277;49.890;8.222;2022-08-19T10:49:28;27.90;65.80
2995;DHT22;35277;49.890;8.222;2022-08-19T10:51:56;27.90;65.70
2995;DHT22;35277;49.890;8.222;2022-08-19T10:54:45;27.80;65.70
2995;DHT22;35277;49.890;8.222;2022-08-19T10:57:34;27.80;65.40
2995;DHT22;35277;49.890;8.222;2022-08-19T11:00:23;27.70;65.20
2995;DHT22;35277;49.890;8.222;2022-08-19T11:02:51;27.70;65.20
2995;DHT22;35277;49.890;8.222;2022-08-19T11:05:21;27.70;65.20
2995;DHT22;35277;49.890;8.222;2022-08-19T11:07:50;27.70;65.10
2995;DHT22;35277;49.890;8.222;2022-08-19T11:10:19;27.80;65.10
2995;DHT22;35277;49.890;8.222;2022-08-19T11:12:48;27.80;65.30
2995;DHT22;35277;49.890;8.222;2022-08-19T11:15:17;27.80;64.90
2995;DHT22;35277;49.890;8.222;2022-08-19T11:17:45;27.80;64.80
2995;DHT22;35277;49.890;8.222;2022-08-19T11:20:13;27.80;64.60
2995;DHT22;35277;49.890;8.222;2022-08-19T11:22:43;27.80;64.40
2995;DHT22;35277;49.890;8.222;2022-08-19T11:25:13;27.90;64.20
2995;DHT22;35277;49.890;8.222;2022-08-19T11:27:41;27.90;64.10
2995;DHT22;35277;49.890;8.222;2022-08-19T11:30:11;27.90;63.50
2995;DHT22;35277;49.890;8.222;2022-08-19T11:32:40;27.90;63.10
2995;DHT22;35277;49.890;8.222;2022-08-19T11:35:15;27.90;62.50
2995;DHT22;35277;49.890;8.222;2022-08-19T11:37:47;27.90;61.60
2995;DHT22;35277;49.890;8.222;2022-08-19T11:40:15;27.80;61.00
2995;DHT22;35277;49.890;8.222;2022-08-19T11:42:43;27.80;61.00
2995;DHT22;35277;49.890;8.222;2022-08-19T11:45:24;27.80;61.00
2995;DHT22;35277;49.890;8.222;2022-08-19T11:47:52;27.70;60.90
2995;DHT22;35277;49.890;8.222;2022-08-19T11:50:21;27.70;60.50
2995;DHT22;35277;49.890;8.222;2022-08-19T11:52:53;27.70;60.70
2995;DHT22;35277;49.890;8.222;2022-08-19T11:55:21;27.70;61.00
2995;DHT22;35277;49.890;8.222;2022-08-19T11:57:49;27.70;61.10
2995;DHT22;35277;49.890;8.222;2022-08-19T12:00:17;27.70;61.30
2995;DHT22;35277;49.890;8.222;2022-08-19T12:02:46;27.80;61.50
2995;DHT22;35277;49.890;8.222;2022-08-19T12:05:13;27.80;61.50
2995;DHT22;35277;49.890;8.222;2022-08-19T12:07:41;27.80;61.30
2995;DHT22;35277;49.890;8.222;2022-08-19T12:10:11;27.80;61.20
2995;DHT22;35277;49.890;8.222;2022-08-19T12:12:44;27.80;61.40
2995;DHT22;35277;49.890;8.222;2022-08-19T12:15:24;27.90;61.20
2995;DHT22;35277;49.890;8.222;2022-08-19T12:18:03;27.90;60.60
2995;DHT22;35277;49.890;8.222;2022-08-19T12:20:32;27.90;60.70
2995;DHT22;35277;49.890;8.222;2022-08-19T12:23:02;27.90;60.80
2995;DHT22;35277;49.890;8.222;2022-08-19T12:25:31;27.90;60.80
2995;DHT22;35277;49.890;8.222;2022-08-19T12:27:59;27.90;60.70
2995;DHT22;35277;49.890;8.222;2022-08-19T12:30:27;27.90;60.80
2995;DHT22;35277;49.890;8.222;2022-08-19T12:32:57;27.90;60.80
2995;DHT22;35277;49.890;8.222;2022-08-19T12:35:25;27.90;60.70
2995;DHT22;35277;49.890;8.222;2022-08-19T12:37:52;27.90;60.60
2995;DHT22;35277;49.890;8.222;2022-08-19T12:40:23;27.90;60.60
2995;DHT22;35277;49.890;8.222;2022-08-19T12:42:53;27.90;60.50
2995;DHT22;35277;49.890;8.222;2022-08-19T12:45:21;28.00;60.50
2995;DHT22;35277;49.890;8.222;2022-08-19T12:47:49;28.00;60.60
2995;DHT22;35277;49.890;8.222;2022-08-19T12:50:21;28.00;60.80
2995;DHT22;35277;49.890;8.222;2022-08-19T12:52:49;28.10;60.90
2995;DHT22;35277;49.890;8.222;2022-08-19T12:55:17;28.10;61.00
2995;DHT22;35277;49.890;8.222;2022-08-19T12:57:45;28.20;62.00
2995;DHT22;35277;49.890;8.222;2022-08-19T13:00:18;28.30;61.30
2995;DHT22;35277;49.890;8.222;2022-08-19T13:02:49;28.30;61.30
2995;DHT22;35277;49.890;8.222;2022-08-19T13:05:19;28.40;61.50
2995;DHT22;35277;49.890;8.222;2022-08-19T13:07:50;28.40;61.60
2995;DHT22;35277;49.890;8.222;2022-08-19T13:10:20;28.50;61.70
2995;DHT22;35277;49.890;8.222;2022-08-19T13:12:50;28.50;61.80
2995;DHT22;35277;49.890;8.222;2022-08-19T13:15:21;28.50;61.80
2995;DHT22;35277;49.890;8.222;2022-08-19T13:17:52;28.60;62.00
2995;DHT22;35277;49.890;8.222;2022-08-19T13:20:20;28.60;62.00
2995;DHT22;35277;49.890;8.222;2022-08-19T13:22:49;28.60;62.10
2995;DHT22;35277;49.890;8.222;2022-08-19T13:25:17;28.70;62.20
2995;DHT22;35277;49.890;8.222;2022-08-19T13:27:47;28.70;62.30
2995;DHT22;35277;49.890;8.222;2022-08-19T13:30:17;28.70;62.30
2995;DHT22;35277;49.890;8.222;2022-08-19T13:33:04;28.80;62.50
2995;DHT22;35277;49.890;8.222;2022-08-19T13:35:44;28.80;62.50
2995;DHT22;35277;49.890;8.222;2022-08-19T13:38:14;28.80;62.60
2995;DHT22;35277;49.890;8.222;2022-08-19T13:40:42;28.80;62.60
2995;DHT22;35277;49.890;8.222;2022-08-19T13:43:10;28.80;62.70
2995;DHT22;35277;49.890;8.222;2022-08-19T13:45:50;28.80;62.70
2995;DHT22;35277;49.890;8.222;2022-08-19T13:48:21;28.90;62.80
2995;DHT22;35277;49.890;8.222;2022-08-19T13:50:50;28.90;62.90
2995;DHT22;35277;49.890;8.222;2022-08-19T13:53:18;28.90;63.10
2995;DHT22;35277;49.890;8.222;2022-08-19T13:55:46;28.90;63.00
2995;DHT22;35277;49.890;8.222;2022-08-19T13:58:13;28.90;63.00
2995;DHT22;35277;49.890;8.222;2022-08-19T14:00:44;28.90;63.10
2995;DHT22;35277;49.890;8.222;2022-08-19T14:03:12;28.90;63.10
2995;DHT22;35277;49.890;8.222;2022-08-19T14:05:41;28.90;63.20
2995;DHT22;35277;49.890;8.222;2022-08-19T14:08:09;29.00;63.30
2995;DHT22;35277;49.890;8.222;2022-08-19T14:10:38;29.00;63.40
2995;DHT22;35277;49.890;8.222;2022-08-19T14:13:09;29.00;63.40
2995;DHT22;35277;49.890;8.222;2022-08-19T14:15:37;29.00;63.40
2995;DHT22;35277;49.890;8.222;2022-08-19T14:18:05;29.00;63.60
2995;DHT22;35277;49.890;8.222;2022-08-19T14:20:34;29.00;63.60
2995;DHT22;35277;49.890;8.222;2022-08-19T14:23:03;29.00;63.70
2995;DHT22;35277;49.890;8.222;2022-08-19T14:25:33;29.00;63.70
2995;DHT22;35277;49.890;8.222;2022-08-19T14:28:01;29.00;63.70
2995;DHT22;35277;49.890;8.222;2022-08-19T14:30:31;29.10;63.90
2995;DHT22;35277;49.890;8.222;2022-08-19T14:33:01;29.10;63.90
2995;DHT22;35277;49.890;8.222;2022-08-19T14:35:32;29.10;64.00
2995;DHT22;35277;49.890;8.222;2022-08-19T14:38:02;29.10;64.00
2995;DHT22;35277;49.890;8.222;2022-08-19T14:40:31;29.10;64.10
2995;DHT22;35277;49.890;8.222;2022-08-19T14:43:03;29.10;64.10
2995;DHT22;35277;49.890;8.222;2022-08-19T14:45:33;29.10;64.10
2995;DHT22;35277;49.890;8.222;2022-08-19T14:48:02;29.10;65.00
2995;DHT22;35277;49.890;8.222;2022-08-19T14:50:31;29.10;64.20
2995;DHT22;35277;49.890;8.222;2022-08-19T14:53:00;29.10;65.00
2995;DHT22;35277;49.890;8.222;2022-08-19T14:55:41;29.10;64.20
2995;DHT22;35277;49.890;8.222;2022-08-19T14:58:09;29.10;64.20
2995;DHT22;35277;49.890;8.222;2022-08-19T15:00:57;29.10;65.00
2995;DHT22;35277;49.890;8.222;2022-08-19T15:03:25;29.10;64.20
2995;DHT22;35277;49.890;8.222;2022-08-19T15:05:53;29.20;64.30
2995;DHT22;35277;49.890;8.222;2022-08-19T15:08:23;29.20;64.30
2995;DHT22;35277;49.890;8.222;2022-08-19T15:10:53;29.20;64.40
2995;DHT22;35277;49.890;8.222;2022-08-19T15:13:21;29.20;64.40
2995;DHT22;35277;49.890;8.222;2022-08-19T15:15:51;29.20;64.40
2995;DHT22;35277;49.890;8.222;2022-08-19T15:18:19;29.20;64.40
2995;DHT22;35277;49.890;8.222;2022-08-19T15:20:48;29.20;64.40
2995;DHT22;35277;49.890;8.222;2022-08-19T15:23:16;29.20;64.40
2995;DHT22;35277;49.890;8.222;2022-08-19T15:25:45;29.20;64.40
2995;DHT22;35277;49.890;8.222;2022-08-19T15:28:14;29.20;64.40
2995;DHT22;35277;49.890;8.222;2022-08-19T15:30:42;29.20;64.40
2995;DHT22;35277;49.890;8.222;2022-08-19T15:33:11;29.20;64.40
2995;DHT22;35277;49.890;8.222;2022-08-19T15:35:41;29.20;64.40
2995;DHT22;35277;49.890;8.222;2022-08-19T15:38:09;29.20;64.40
2995;DHT22;35277;49.890;8.222;2022-08-19T15:40:40;29.20;64.40
2995;DHT22;35277;49.890;8.222;2022-08-19T15:43:08;29.20;64.40
2995;DHT22;35277;49.890;8.222;2022-08-19T15:45:37;29.30;64.50
2995;DHT22;35277;49.890;8.222;2022-08-19T15:48:05;29.30;64.50
2995;DHT22;35277;49.890;8.222;2022-08-19T15:50:33;29.30;64.50
2995;DHT22;35277;49.890;8.222;2022-08-19T15:53:04;29.30;64.50
2995;DHT22;35277;49.890;8.222;2022-08-19T15:55:35;29.30;64.50
2995;DHT22;35277;49.890;8.222;2022-08-19T15:58:05;29.30;64.50
2995;DHT22;35277;49.890;8.222;2022-08-19T16:00:57;29.30;64.60
2995;DHT22;35277;49.890;8.222;2022-08-19T16:03:55;29.30;64.60
2995;DHT22;35277;49.890;8.222;2022-08-19T16:06:44;29.30;64.60
2995;DHT22;35277;49.890;8.222;2022-08-19T16:09:13;29.30;64.60